Time;durP1;ratioP1;P1;durP2;ratioP2;P2;SDS_P1;SDS_P2;PMS_P1;PMS_P2;Temp;Humidity;BMP_temperature;BMP_pressure;BME280_temperature;BME280_humidity;BME280_pressure;Samples;Min_cycle;Max_cycle;Signal;HPM_P1;HPM_P2
2022/09/25 00:01:41;;;;;;;4.70;3.87;;;12.10;99.90;;;;;;5029192;28;20722;-80
2022/09/25 00:04:10;;;;;;;5.20;4.67;;;12.10;99.90;;;;;;5029027;28;20619;-80
2022/09/25 00:06:38;;;;;;;6.30;4.80;;;12.10;99.90;;;;;;5028790;28;20689;-80
2022/09/25 00:09:07;;;;;;;6.20;4.30;;;12.10;99.90;;;;;;5029139;28;20670;-80
2022/09/25 00:11:35;;;;;;;4.50;4.00;;;12.10;99.90;;;;;;5028636;28;20633;-79
2022/09/25 00:14:02;;;;;;;4.43;4.03;;;12.00;99.90;;;;;;5029048;28;21279;-79
2022/09/25 00:16:31;;;;;;;4.43;4.03;;;12.00;99.90;;;;;;5027822;28;20619;-80
2022/09/25 00:21:51;;;;;;;4.87;3.87;;;12.00;99.90;;;;;;5002779;28;20680;-79
2022/09/25 00:24:18;;;;;;;5.00;4.30;;;11.90;99.90;;;;;;5028052;28;20627;-79
2022/09/25 00:26:45;;;;;;;4.60;4.20;;;11.90;99.90;;;;;;5028596;28;20619;-79
2022/09/25 00:29:17;;;;;;;6.40;5.03;;;11.90;99.90;;;;;;5028747;28;20655;-79
2022/09/25 00:31:44;;;;;;;4.53;4.13;;;12.00;99.90;;;;;;5027986;28;20661;-80
2022/09/25 00:34:11;;;;;;;4.97;3.53;;;12.00;99.90;;;;;;5028325;28;20727;-79
2022/09/25 00:36:38;;;;;;;5.90;4.03;;;12.10;99.90;;;;;;5028530;28;20661;-79
2022/09/25 00:39:07;;;;;;;5.37;4.10;;;12.00;99.90;;;;;;5028579;28;20619;-79
2022/09/25 00:41:34;;;;;;;4.53;4.13;;;11.90;99.90;;;;;;5028453;28;21200;-79
2022/09/25 00:44:03;;;;;;;5.83;4.87;;;11.90;99.90;;;;;;5028239;28;20694;-79
2022/09/25 00:46:34;;;;;;;4.23;3.63;;;12.00;99.90;;;;;;5027030;28;20653;-80
2022/09/25 00:49:04;;;;;;;6.47;4.90;;;12.00;99.90;;;;;;5028521;28;20980;-79
2022/09/25 00:51:37;;;;;;;3.83;3.53;;;12.00;99.90;;;;;;5027392;28;20630;-80
2022/09/25 00:54:08;;;;;;;5.97;5.00;;;12.00;99.90;;;;;;5024326;28;21183;-79
2022/09/25 00:56:39;;;;;;;4.80;4.17;;;12.00;99.90;;;;;;5028084;28;20659;-80
2022/09/25 00:59:11;;;;;;;3.43;3.10;;;11.90;99.90;;;;;;5028119;28;20772;-79
2022/09/25 01:01:38;;;;;;;10.07;4.90;;;12.00;99.90;;;;;;5028241;28;20627;-79
2022/09/25 01:04:05;;;;;;;4.00;3.70;;;11.90;99.90;;;;;;5027111;28;20630;-79
2022/09/25 01:06:32;;;;;;;4.07;3.63;;;11.90;99.90;;;;;;5026312;28;20626;-80
2022/09/25 01:09:00;;;;;;;5.40;4.30;;;11.90;99.90;;;;;;5027872;28;20623;-79
2022/09/25 01:11:29;;;;;;;6.00;5.10;;;11.90;99.90;;;;;;5027175;28;20983;-79
2022/09/25 01:13:59;;;;;;;5.33;4.20;;;11.80;99.90;;;;;;5027229;28;20619;-80
2022/09/25 01:16:32;;;;;;;6.60;5.53;;;11.80;99.90;;;;;;5026642;28;20624;-79
2022/09/25 01:19:13;;;;;;;5.43;4.60;;;11.80;99.90;;;;;;5027345;28;20681;-80
2022/09/25 01:21:46;;;;;;;4.77;4.07;;;11.90;99.90;;;;;;5027147;28;20599;-80
2022/09/25 01:24:42;;;;;;;4.27;3.43;;;11.90;99.90;;;;;;5027198;28;21209;-80
2022/09/25 01:27:45;;;;;;;4.83;3.97;;;11.90;99.90;;;;;;5027729;28;20635;-79
2022/09/25 01:30:17;;;;;;;8.03;4.63;;;11.90;99.90;;;;;;4952082;28;20701;-80
2022/09/25 01:32:57;;;;;;;5.77;4.80;;;11.90;99.90;;;;;;5017343;28;20631;-80
2022/09/25 01:35:36;;;;;;;5.77;4.20;;;11.90;99.90;;;;;;5027297;28;20627;-79
2022/09/25 01:38:14;;;;;;;5.50;4.90;;;11.90;99.90;;;;;;5027431;28;20611;-80
2022/09/25 01:40:47;;;;;;;4.00;3.70;;;11.90;99.90;;;;;;5027500;28;20614;-80
2022/09/25 01:43:17;;;;;;;4.03;3.33;;;11.90;99.90;;;;;;5026968;28;20626;-81
2022/09/25 01:45:50;;;;;;;4.40;4.00;;;11.90;99.90;;;;;;5025788;28;20616;-80
2022/09/25 01:48:21;;;;;;;6.47;4.97;;;12.00;99.90;;;;;;5027035;28;20681;-80
2022/09/25 01:50:53;;;;;;;7.03;5.00;;;12.00;99.90;;;;;;5027164;28;20673;-81
2022/09/25 01:53:25;;;;;;;3.80;3.47;;;12.00;99.90;;;;;;5027349;28;20997;-80
2022/09/25 01:55:56;;;;;;;6.20;4.07;;;12.00;99.90;;;;;;5026488;28;20810;-80
2022/09/25 01:58:27;;;;;;;5.07;4.10;;;12.00;99.90;;;;;;5026969;28;20647;-80
2022/09/25 02:01:00;;;;;;;8.03;6.17;;;12.00;99.90;;;;;;5027891;28;20769;-79
2022/09/25 02:03:32;;;;;;;7.40;4.73;;;12.00;99.90;;;;;;5026619;28;20627;-80
2022/09/25 02:06:02;;;;;;;5.97;5.37;;;12.00;99.90;;;;;;5027114;28;20621;-80
2022/09/25 02:08:34;;;;;;;3.93;3.50;;;12.00;99.90;;;;;;5026927;28;20629;-80
2022/09/25 02:11:03;;;;;;;5.27;4.77;;;12.00;99.90;;;;;;5027399;28;20694;-79
2022/09/25 02:13:37;;;;;;;6.17;4.30;;;12.10;99.90;;;;;;5026854;28;20628;-80
2022/09/25 02:16:09;;;;;;;6.47;4.60;;;12.10;99.90;;;;;;5026164;28;20619;-80
2022/09/25 02:21:29;;;;;;;7.73;4.03;;;12.10;99.90;;;;;;5027300;28;20607;-80
2022/09/25 02:24:02;;;;;;;5.30;3.33;;;12.10;99.90;;;;;;5026907;28;20627;-79
2022/09/25 02:26:32;;;;;;;5.53;4.30;;;12.10;99.90;;;;;;5025855;28;20615;-80
2022/09/25 02:28:59;;;;;;;6.57;3.83;;;12.10;99.90;;;;;;5026993;28;20620;-79
2022/09/25 02:31:30;;;;;;;4.70;4.30;;;12.20;99.90;;;;;;5026702;28;20663;-80
2022/09/25 02:33:58;;;;;;;8.07;5.40;;;12.20;99.90;;;;;;5027138;28;21191;-80
2022/09/25 02:36:25;;;;;;;6.33;5.70;;;12.20;99.90;;;;;;5025996;28;20717;-80
2022/09/25 02:38:55;;;;;;;5.77;3.77;;;12.20;99.90;;;;;;5025116;28;20607;-80
2022/09/25 02:41:34;;;;;;;5.37;4.60;;;12.20;99.90;;;;;;5026375;28;21091;-80
2022/09/25 02:44:12;;;;;;;3.63;3.33;;;12.30;99.90;;;;;;5025441;28;20612;-79
2022/09/25 02:46:51;;;;;;;6.70;4.67;;;12.20;99.90;;;;;;5026050;28;20633;-79
2022/09/25 02:49:24;;;;;;;5.53;5.07;;;12.20;99.90;;;;;;5026319;28;21274;-80
2022/09/25 02:51:57;;;;;;;4.57;4.17;;;12.20;99.90;;;;;;5026297;28;21323;-80
2022/09/25 02:54:29;;;;;;;4.93;4.33;;;12.30;99.90;;;;;;5025778;28;20615;-80
2022/09/25 02:57:04;;;;;;;6.20;5.60;;;12.30;99.90;;;;;;5006745;28;20620;-79
2022/09/25 02:59:37;;;;;;;5.80;5.30;;;12.30;99.90;;;;;;5022160;28;21531;-80
2022/09/25 03:02:06;;;;;;;4.90;4.47;;;12.30;99.90;;;;;;5026602;28;21516;-79
2022/09/25 03:04:36;;;;;;;4.80;4.30;;;12.30;99.90;;;;;;5025793;28;20722;-79
2022/09/25 03:07:04;;;;;;;5.60;4.60;;;12.30;99.90;;;;;;5028657;28;20634;-80
2022/09/25 03:09:33;;;;;;;7.07;4.83;;;12.20;99.90;;;;;;5030495;28;20638;-80
2022/09/25 03:12:03;;;;;;;5.63;4.57;;;12.30;99.90;;;;;;5030355;28;20663;-79
2022/09/25 03:14:30;;;;;;;5.13;4.00;;;12.30;99.90;;;;;;5029797;28;20622;-79
2022/09/25 03:17:00;;;;;;;5.07;4.40;;;12.30;99.90;;;;;;5030025;28;20718;-79
2022/09/25 03:19:29;;;;;;;7.30;5.63;;;12.30;99.90;;;;;;5029917;28;21197;-80
2022/09/25 03:21:56;;;;;;;5.97;3.83;;;12.30;99.90;;;;;;5030039;28;20673;-80
2022/09/25 03:24:24;;;;;;;5.80;5.07;;;12.20;99.90;;;;;;5029544;28;20629;-80
2022/09/25 03:26:52;;;;;;;5.87;3.90;;;12.30;99.90;;;;;;5029522;28;20620;-80
2022/09/25 03:29:20;;;;;;;7.17;5.03;;;12.30;99.90;;;;;;5029783;28;20619;-79
2022/09/25 03:31:47;;;;;;;6.23;5.43;;;12.30;99.90;;;;;;5029701;28;20737;-80
2022/09/25 03:34:17;;;;;;;5.20;4.43;;;12.30;99.90;;;;;;5029276;28;20639;-79
2022/09/25 03:36:47;;;;;;;8.07;4.57;;;12.30;99.90;;;;;;5029731;28;20762;-80
2022/09/25 03:39:16;;;;;;;5.17;4.67;;;12.40;99.90;;;;;;5029225;28;20635;-80
2022/09/25 03:41:43;;;;;;;6.00;5.40;;;12.40;99.90;;;;;;5029028;28;20631;-80
2022/09/25 03:44:10;;;;;;;6.20;4.83;;;12.40;99.90;;;;;;5029014;28;21302;-80
2022/09/25 03:46:37;;;;;;;6.30;4.93;;;12.40;99.90;;;;;;5029220;28;20635;-80
2022/09/25 03:49:05;;;;;;;6.37;4.43;;;12.40;99.90;;;;;;5029625;28;20627;-80
2022/09/25 03:51:32;;;;;;;5.97;4.57;;;12.40;99.90;;;;;;5029208;28;20671;-80
2022/09/25 03:54:02;;;;;;;4.47;4.13;;;12.40;99.90;;;;;;5029390;28;20631;-80
2022/09/25 03:56:30;;;;;;;4.90;4.50;;;12.40;99.90;;;;;;5028957;28;21200;-80
2022/09/25 03:58:57;;;;;;;5.27;4.70;;;12.40;99.90;;;;;;5029286;28;21437;-80
2022/09/25 04:01:25;;;;;;;7.60;4.90;;;12.40;99.90;;;;;;5029263;28;20622;-80
2022/09/25 04:03:52;;;;;;;4.27;3.97;;;12.40;99.90;;;;;;5029083;28;20985;-80
2022/09/25 04:06:22;;;;;;;6.87;5.00;;;12.40;99.90;;;;;;5028291;28;20623;-80
2022/09/25 04:08:49;;;;;;;5.73;4.53;;;12.40;99.90;;;;;;5028645;28;20693;-80
2022/09/25 04:11:19;;;;;;;6.97;4.60;;;12.40;99.90;;;;;;5028869;28;20659;-81
2022/09/25 04:13:46;;;;;;;6.60;4.77;;;12.30;99.90;;;;;;5029136;28;20626;-80
2022/09/25 04:16:14;;;;;;;7.10;4.70;;;12.30;99.90;;;;;;5027993;28;20718;-81
2022/09/25 04:18:41;;;;;;;5.87;4.43;;;12.30;99.90;;;;;;5028501;28;20620;-80
2022/09/25 04:21:11;;;;;;;6.80;4.50;;;12.20;99.90;;;;;;5028250;28;20689;-80
2022/09/25 04:23:38;;;;;;;6.23;4.80;;;12.20;99.90;;;;;;5028778;28;21240;-80
2022/09/25 04:26:06;;;;;;;7.20;5.50;;;12.20;99.90;;;;;;5028380;28;20627;-80
2022/09/25 04:28:34;;;;;;;5.27;4.20;;;12.20;99.90;;;;;;5028875;28;20627;-80
2022/09/25 04:31:02;;;;;;;7.10;4.70;;;12.20;99.90;;;;;;5028914;28;20665;-80
2022/09/25 04:33:46;;;;;;;5.13;4.73;;;12.30;99.90;;;;;;5027900;28;20631;-80
2022/09/25 04:36:14;;;;;;;5.33;4.93;;;12.30;99.90;;;;;;5028714;28;20638;-80
2022/09/25 04:38:41;;;;;;;6.40;4.50;;;12.40;99.90;;;;;;5028874;28;20625;-80
2022/09/25 04:41:08;;;;;;;5.53;4.80;;;12.40;99.90;;;;;;5028902;28;21365;-80
2022/09/25 04:43:36;;;;;;;4.30;3.90;;;12.40;99.90;;;;;;5028384;28;20646;-80
2022/09/25 04:46:04;;;;;;;5.67;5.20;;;12.30;99.90;;;;;;5027726;28;20628;-80
2022/09/25 04:48:33;;;;;;;7.20;4.10;;;12.30;99.90;;;;;;5028781;28;20718;-80
2022/09/25 04:50:59;;;;;;;4.17;3.20;;;12.20;99.90;;;;;;5028639;28;21330;-80
2022/09/25 04:53:28;;;;;;;4.70;3.60;;;12.20;99.90;;;;;;5028598;28;21074;-80
2022/09/25 04:56:00;;;;;;;5.73;4.70;;;12.20;99.90;;;;;;5028037;28;20614;-80
2022/09/25 04:58:27;;;;;;;3.63;3.17;;;12.20;99.90;;;;;;5027879;28;20634;-80
2022/09/25 05:00:55;;;;;;;5.43;4.50;;;12.20;99.90;;;;;;5028282;28;20630;-79
2022/09/25 05:03:22;;;;;;;8.17;5.83;;;12.20;99.90;;;;;;5028102;28;20615;-81
2022/09/25 05:05:49;;;;;;;6.53;4.83;;;12.20;99.90;;;;;;5028143;28;20627;-80
2022/09/25 05:08:16;;;;;;;5.90;4.20;;;12.20;99.90;;;;;;5028418;28;20627;-81
2022/09/25 05:10:43;;;;;;;7.43;5.17;;;12.30;99.90;;;;;;5027750;28;21206;-80
2022/09/25 05:13:11;;;;;;;6.13;5.50;;;12.30;99.90;;;;;;5027893;28;20631;-80
2022/09/25 05:15:38;;;;;;;4.40;3.83;;;12.30;99.90;;;;;;5027459;28;20642;-80
2022/09/25 05:18:11;;;;;;;3.90;3.40;;;12.40;99.90;;;;;;5028193;28;21104;-80
2022/09/25 05:20:38;;;;;;;5.60;3.90;;;12.40;99.90;;;;;;5028400;28;20631;-80
2022/09/25 05:23:05;;;;;;;5.13;4.00;;;12.40;99.90;;;;;;5028121;28;20677;-79
2022/09/25 05:25:32;;;;;;;4.10;3.70;;;12.30;99.90;;;;;;5026736;28;20662;-80
2022/09/25 05:28:00;;;;;;;8.53;3.80;;;12.30;99.90;;;;;;5027714;28;20631;-80
2022/09/25 05:30:29;;;;;;;4.17;3.30;;;12.30;99.90;;;;;;5026847;28;20627;-80
2022/09/25 05:32:57;;;;;;;4.20;3.80;;;12.30;99.90;;;;;;5028110;28;20639;-80
2022/09/25 05:35:27;;;;;;;5.30;4.70;;;12.30;99.90;;;;;;5022222;28;21033;-81
2022/09/25 05:37:54;;;;;;;3.00;2.70;;;12.40;99.90;;;;;;5020538;28;21009;-80
2022/09/25 05:40:22;;;;;;;5.77;5.10;;;12.40;99.90;;;;;;5021405;28;20638;-80
2022/09/25 05:42:54;;;;;;;4.47;3.67;;;12.40;99.90;;;;;;5017281;28;20695;-80
2022/09/25 05:45:23;;;;;;;7.40;4.30;;;12.40;99.90;;;;;;5018540;28;20612;-81
2022/09/25 05:47:59;;;;;;;6.87;3.80;;;12.30;99.90;;;;;;5019263;28;20619;-81
2022/09/25 05:50:28;;;;;;;6.47;4.47;;;12.40;99.90;;;;;;5018840;28;20607;-81
2022/09/25 05:52:56;;;;;;;8.73;6.67;;;12.30;99.90;;;;;;5018037;28;21221;-80
2022/09/25 05:55:23;;;;;;;5.17;3.90;;;12.30;99.90;;;;;;5016950;28;20620;-80
2022/09/25 05:57:49;;;;;;;7.67;6.00;;;12.30;99.90;;;;;;5016317;28;20615;-80
2022/09/25 06:00:19;;;;;;;5.97;5.00;;;12.30;99.90;;;;;;5016462;28;20659;-80
2022/09/25 06:02:50;;;;;;;6.03;4.40;;;12.30;99.90;;;;;;5017122;28;20625;-80
2022/09/25 06:05:17;;;;;;;7.53;4.93;;;12.30;99.90;;;;;;5018252;28;20709;-80
2022/09/25 06:07:45;;;;;;;5.67;5.17;;;12.40;99.90;;;;;;5022978;28;20631;-80
2022/09/25 06:10:12;;;;;;;7.17;6.00;;;12.40;99.90;;;;;;5016818;28;20634;-79
2022/09/25 06:12:39;;;;;;;9.83;6.03;;;12.40;99.90;;;;;;5016145;28;20655;-81
2022/09/25 06:15:07;;;;;;;9.40;6.97;;;12.40;99.90;;;;;;5017164;28;20628;-80
2022/09/25 06:17:33;;;;;;;5.87;4.20;;;12.40;99.90;;;;;;5017972;28;20630;-79
2022/09/25 06:20:00;;;;;;;6.53;3.90;;;12.40;99.90;;;;;;5018164;28;20623;-80
2022/09/25 06:22:27;;;;;;;9.77;5.50;;;12.40;99.90;;;;;;5019345;28;21182;-80
2022/09/25 06:24:55;;;;;;;11.60;5.53;;;12.50;99.90;;;;;;5016114;28;21197;-79
2022/09/25 06:27:22;;;;;;;7.50;5.87;;;12.40;99.90;;;;;;5017034;28;20630;-80
2022/09/25 06:29:49;;;;;;;6.97;4.47;;;12.40;99.90;;;;;;5015922;28;20617;-79
2022/09/25 06:32:16;;;;;;;8.50;4.70;;;12.40;99.90;;;;;;5018082;28;20762;-80
2022/09/25 06:34:42;;;;;;;3.97;3.37;;;12.40;99.90;;;;;;5022076;28;20637;-79
2022/09/25 06:37:09;;;;;;;6.60;4.23;;;12.40;99.90;;;;;;5023736;28;21265;-80
2022/09/25 06:39:36;;;;;;;5.57;5.17;;;12.40;99.90;;;;;;5015661;28;21385;-80
2022/09/25 06:42:05;;;;;;;4.30;3.80;;;12.50;99.90;;;;;;5021328;28;20634;-78
2022/09/25 06:44:33;;;;;;;3.90;3.60;;;12.50;99.90;;;;;;5021829;28;20630;-80
2022/09/25 06:47:00;;;;;;;4.50;3.07;;;12.50;99.90;;;;;;5024286;28;20619;-80
2022/09/25 06:49:27;;;;;;;4.53;3.20;;;12.40;99.90;;;;;;5015640;28;20623;-78
2022/09/25 06:51:54;;;;;;;2.77;2.57;;;12.40;99.90;;;;;;5020686;28;20671;-78
2022/09/25 06:54:20;;;;;;;5.47;3.50;;;12.40;99.90;;;;;;5018309;28;20759;-78
2022/09/25 06:56:49;;;;;;;3.10;2.80;;;12.50;99.90;;;;;;5020566;28;20723;-78
2022/09/25 06:59:17;;;;;;;6.80;3.70;;;12.50;99.90;;;;;;5024315;28;21239;-78
2022/09/25 07:01:44;;;;;;;3.47;2.63;;;12.60;99.90;;;;;;5018647;28;21176;-78
2022/09/25 07:04:10;;;;;;;4.57;2.80;;;12.60;99.90;;;;;;5020786;28;20633;-78
2022/09/25 07:06:36;;;;;;;7.43;3.10;;;12.60;99.90;;;;;;5020548;28;20615;-78
2022/09/25 07:09:04;;;;;;;2.73;2.57;;;12.60;99.90;;;;;;5019915;28;20205;-78
2022/09/25 07:11:31;;;;;;;5.53;3.53;;;12.70;99.90;;;;;;5021327;28;20661;-78
2022/09/25 07:13:58;;;;;;;5.33;3.13;;;12.70;99.90;;;;;;5022624;28;20634;-78
2022/09/25 07:16:27;;;;;;;2.87;2.67;;;12.70;99.90;;;;;;5021319;28;20619;-78
2022/09/25 07:18:56;;;;;;;4.27;3.43;;;12.70;99.90;;;;;;5020615;28;20615;-78
2022/09/25 07:21:23;;;;;;;5.33;4.07;;;12.70;99.90;;;;;;5019536;28;20724;-78
2022/09/25 07:23:51;;;;;;;8.10;3.30;;;12.60;99.90;;;;;;5018936;28;20638;-78
2022/09/25 07:26:21;;;;;;;4.93;3.33;;;12.60;99.90;;;;;;5028659;28;20631;-78
2022/09/25 07:28:48;;;;;;;4.23;3.83;;;12.60;99.90;;;;;;5030386;28;20638;-78
2022/09/25 07:31:17;;;;;;;4.70;4.20;;;12.80;99.90;;;;;;5029838;28;20623;-78
2022/09/25 07:33:46;;;;;;;4.07;2.87;;;12.80;99.90;;;;;;5029817;28;20635;-78
2022/09/25 07:36:14;;;;;;;3.87;3.23;;;12.80;99.90;;;;;;5029254;28;20756;-79
2022/09/25 07:38:41;;;;;;;3.97;3.30;;;12.80;99.90;;;;;;5029813;28;20722;-78
2022/09/25 07:41:10;;;;;;;5.80;4.30;;;12.90;99.90;;;;;;5030529;28;20627;-78
2022/09/25 07:43:37;;;;;;;5.90;4.00;;;12.90;99.90;;;;;;5030040;28;20615;-78
2022/09/25 07:46:04;;;;;;;5.00;4.17;;;13.00;99.90;;;;;;5029514;28;20623;-78
2022/09/25 07:48:31;;;;;;;5.03;3.53;;;12.90;99.90;;;;;;5027862;28;20726;-78
2022/09/25 07:51:05;;;;;;;5.97;3.60;;;12.90;99.90;;;;;;5029702;28;20607;-78
2022/09/25 07:53:31;;;;;;;3.83;3.40;;;13.00;99.90;;;;;;5028512;28;20674;-78
2022/09/25 07:55:59;;;;;;;4.07;3.07;;;13.00;99.90;;;;;;5028512;28;20619;-78
2022/09/25 07:58:26;;;;;;;6.17;3.20;;;13.00;99.90;;;;;;5028865;28;20623;-78
2022/09/25 08:00:54;;;;;;;4.27;3.10;;;13.10;99.90;;;;;;5029351;28;21205;-78
2022/09/25 08:03:21;;;;;;;3.57;3.23;;;13.10;99.90;;;;;;5017659;28;20624;-78
2022/09/25 08:05:48;;;;;;;4.00;3.57;;;13.10;99.90;;;;;;5018256;28;20659;-78
2022/09/25 08:08:16;;;;;;;3.33;3.03;;;13.10;99.90;;;;;;5019798;28;20628;-77
2022/09/25 08:10:43;;;;;;;5.00;3.60;;;13.10;99.90;;;;;;5019975;28;21215;-77
2022/09/25 08:13:09;;;;;;;4.17;3.60;;;13.10;99.90;;;;;;5014638;28;20667;-77
2022/09/25 08:15:36;;;;;;;4.40;4.00;;;13.10;99.90;;;;;;5022291;28;21205;-77
2022/09/25 08:18:03;;;;;;;3.70;3.07;;;13.10;99.90;;;;;;5020760;28;21186;-78
2022/09/25 08:20:30;;;;;;;4.10;3.77;;;13.10;99.90;;;;;;5019803;28;20623;-78
2022/09/25 08:22:57;;;;;;;3.87;3.13;;;13.10;99.90;;;;;;5019848;28;20629;-77
2022/09/25 08:25:25;;;;;;;6.97;3.87;;;13.10;99.90;;;;;;5011479;28;20624;-78
2022/09/25 08:27:52;;;;;;;4.20;3.80;;;13.10;99.90;;;;;;5016478;28;20734;-78
2022/09/25 08:30:19;;;;;;;4.53;3.10;;;13.20;99.90;;;;;;5021116;28;20613;-77
2022/09/25 08:32:45;;;;;;;4.60;2.90;;;13.30;99.90;;;;;;5022194;28;20678;-78
2022/09/25 08:35:13;;;;;;;4.47;4.07;;;13.30;99.90;;;;;;5018278;28;20654;-78
2022/09/25 08:37:41;;;;;;;4.03;3.30;;;13.20;99.90;;;;;;5015315;28;20678;-77
2022/09/25 08:40:17;;;;;;;4.90;3.30;;;13.30;99.90;;;;;;5009126;28;20655;-77
2022/09/25 08:42:48;;;;;;;4.37;3.80;;;13.30;99.90;;;;;;5020770;28;20675;-77
2022/09/25 08:51:04;;;;;;;4.93;4.37;;;13.50;99.90;;;;;;5027929;28;20685;-78
2022/09/25 08:53:33;;;;;;;3.40;3.10;;;13.50;99.90;;;;;;5021846;28;21421;-79
2022/09/25 08:56:16;;;;;;;3.30;3.00;;;13.60;99.90;;;;;;5017337;28;20647;-79
2022/09/25 08:58:51;;;;;;;2.50;2.20;;;13.60;99.90;;;;;;5017848;28;20750;-78
2022/09/25 09:01:22;;;;;;;2.10;1.70;;;13.60;99.90;;;;;;5023026;28;20623;-79
2022/09/25 09:03:55;;;;;;;4.07;3.67;;;13.70;99.90;;;;;;5020012;28;20994;-78
2022/09/25 09:06:25;;;;;;;6.50;3.53;;;13.60;99.90;;;;;;5013912;28;20654;-80
2022/09/25 09:09:00;;;;;;;3.13;2.83;;;13.60;99.90;;;;;;5018814;28;20624;-80
2022/09/25 09:11:31;;;;;;;4.10;3.77;;;13.60;99.90;;;;;;5015728;28;20628;-80
2022/09/25 09:14:12;;;;;;;3.20;2.90;;;13.70;99.90;;;;;;5013435;28;20626;-80
2022/09/25 09:16:43;;;;;;;4.47;3.47;;;13.70;99.90;;;;;;5023101;28;21432;-79
2022/09/25 09:19:12;;;;;;;3.63;3.30;;;13.60;99.90;;;;;;5028172;28;20631;-79
2022/09/25 09:21:43;;;;;;;3.53;2.77;;;13.70;99.90;;;;;;5016574;28;21243;-80
2022/09/25 09:24:17;;;;;;;3.60;3.13;;;13.70;99.90;;;;;;5011697;28;20646;-79
2022/09/25 09:27:10;;;;;;;3.13;2.67;;;13.80;99.90;;;;;;5016017;28;20663;-79
2022/09/25 09:29:55;;;;;;;3.50;3.10;;;13.80;99.90;;;;;;5017345;28;20689;-80
2022/09/25 09:32:35;;;;;;;3.90;3.57;;;13.80;99.90;;;;;;5019915;28;20795;-78
2022/09/25 09:35:17;;;;;;;3.77;3.40;;;13.80;99.90;;;;;;5017937;28;20643;-79
2022/09/25 09:38:23;;;;;;;4.13;3.40;;;13.90;99.90;;;;;;5021430;28;21222;-80
2022/09/25 09:41:29;;;;;;;3.10;2.70;;;13.80;99.90;;;;;;5017039;28;20652;-81
2022/09/25 09:44:34;;;;;;;3.23;2.93;;;13.80;99.90;;;;;;5015324;28;20643;-81
2022/09/25 09:47:51;;;;;;;5.40;2.73;;;13.80;99.90;;;;;;5019299;28;20643;-81
2022/09/25 09:50:52;;;;;;;3.30;2.80;;;13.80;99.90;;;;;;5006673;28;20651;-82
2022/09/25 09:53:42;;;;;;;3.83;2.50;;;13.90;99.90;;;;;;5016564;28;20973;-81
2022/09/25 09:56:39;;;;;;;3.70;3.40;;;13.80;99.90;;;;;;5014768;28;20643;-82
2022/09/25 09:59:16;;;;;;;3.10;2.90;;;13.80;99.90;;;;;;5021453;28;20643;-80
2022/09/25 10:01:46;;;;;;;5.60;3.07;;;13.80;99.90;;;;;;5017772;28;20742;-79
2022/09/25 10:04:19;;;;;;;3.13;2.67;;;13.90;99.90;;;;;;5017866;28;20639;-79
2022/09/25 10:06:50;;;;;;;3.33;3.03;;;13.80;99.90;;;;;;5017244;28;20635;-79
2022/09/25 10:09:17;;;;;;;5.40;3.53;;;13.90;99.90;;;;;;5018362;28;21191;-79
2022/09/25 10:11:46;;;;;;;2.90;2.40;;;13.80;99.90;;;;;;5018400;28;20647;-79
2022/09/25 10:14:19;;;;;;;3.97;3.37;;;13.80;99.90;;;;;;5017984;28;20763;-80
2022/09/25 10:16:48;;;;;;;3.07;2.60;;;13.80;99.90;;;;;;5024466;28;20628;-79
2022/09/25 10:19:20;;;;;;;4.93;2.80;;;13.80;99.90;;;;;;5019530;28;20738;-79
2022/09/25 10:21:51;;;;;;;3.90;2.87;;;13.80;99.90;;;;;;5024619;28;20756;-78
2022/09/25 10:24:51;;;;;;;2.87;2.53;;;13.90;99.90;;;;;;5019555;28;20733;-79
2022/09/25 10:27:44;;;;;;;2.90;2.60;;;14.00;99.90;;;;;;5021812;28;20686;-79
2022/09/25 10:30:19;;;;;;;2.87;2.10;;;14.00;99.90;;;;;;5022354;28;21366;-79
2022/09/25 10:32:56;;;;;;;2.63;2.43;;;14.00;99.90;;;;;;5021332;28;20662;-78
2022/09/25 10:35:28;;;;;;;2.47;2.27;;;14.10;99.90;;;;;;5021096;28;20644;-78
2022/09/25 10:37:59;;;;;;;2.40;2.20;;;14.10;99.90;;;;;;5020264;28;20620;-79
2022/09/25 10:40:30;;;;;;;3.50;2.67;;;14.00;99.90;;;;;;5019684;28;20642;-78
2022/09/25 10:43:14;;;;;;;4.73;3.53;;;13.90;99.90;;;;;;5020031;28;20633;-79
2022/09/25 10:45:43;;;;;;;3.17;2.83;;;13.90;99.90;;;;;;5024860;28;21216;-80
2022/09/25 10:51:32;;;;;;;3.90;3.57;;;13.80;99.90;;;;;;5020052;28;21054;-81
2022/09/25 10:54:20;;;;;;;3.60;3.30;;;13.90;99.90;;;;;;5022808;28;20762;-81
2022/09/25 10:56:51;;;;;;;4.43;3.97;;;13.90;99.90;;;;;;5018806;28;20635;-79
2022/09/25 10:59:19;;;;;;;8.40;3.83;;;13.90;99.90;;;;;;5022166;28;20948;-79
2022/09/25 11:01:58;;;;;;;4.27;3.87;;;13.90;99.90;;;;;;5022071;28;20615;-81
2022/09/25 11:04:41;;;;;;;3.43;3.07;;;13.90;99.90;;;;;;5021114;28;20628;-81
2022/09/25 11:07:30;;;;;;;2.93;2.73;;;13.80;99.90;;;;;;5023215;28;20701;-81
2022/09/25 11:10:18;;;;;;;3.87;3.57;;;13.80;99.90;;;;;;5021866;28;20643;-81
2022/09/25 11:12:45;;;;;;;3.10;2.63;;;13.80;99.90;;;;;;5020139;28;20661;-79
2022/09/25 11:15:25;;;;;;;2.60;2.40;;;13.80;99.90;;;;;;5018369;28;20624;-79
2022/09/25 11:18:05;;;;;;;4.17;3.20;;;13.80;99.90;;;;;;5022049;28;20677;-81
2022/09/25 11:20:47;;;;;;;2.77;2.47;;;13.80;99.90;;;;;;5020935;28;20635;-81
2022/09/25 11:23:31;;;;;;;3.37;3.00;;;13.70;99.90;;;;;;5018813;28;20713;-79
2022/09/25 11:26:05;;;;;;;4.07;3.53;;;13.70;99.90;;;;;;5021927;28;20637;-81
2022/09/25 11:28:48;;;;;;;5.30;3.80;;;13.60;99.90;;;;;;5023817;28;20631;-81
2022/09/25 11:31:26;;;;;;;4.20;3.67;;;13.60;99.90;;;;;;5021695;28;20627;-82
2022/09/25 11:33:56;;;;;;;6.10;4.13;;;13.70;99.90;;;;;;5026207;28;20659;-79
2022/09/25 11:36:29;;;;;;;4.47;3.00;;;13.70;99.90;;;;;;5019804;28;20627;-79
2022/09/25 11:41:57;;;;;;;4.30;3.90;;;13.70;99.90;;;;;;5023547;28;20627;-81
2022/09/25 11:44:30;;;;;;;4.40;4.00;;;13.70;99.90;;;;;;5022949;28;21407;-79
2022/09/25 11:47:03;;;;;;;4.10;3.80;;;13.70;99.90;;;;;;5018523;28;20746;-78
2022/09/25 11:49:33;;;;;;;4.20;3.07;;;13.70;99.90;;;;;;5020064;28;20628;-78
2022/09/25 11:52:21;;;;;;;4.40;3.13;;;13.70;99.90;;;;;;5022254;28;20646;-79
2022/09/25 11:55:20;;;;;;;4.70;3.60;;;13.70;99.90;;;;;;5020258;28;20624;-78
2022/09/25 11:58:01;;;;;;;6.33;4.73;;;13.70;99.90;;;;;;5021457;28;20616;-79
2022/09/25 12:00:37;;;;;;;3.37;3.07;;;13.60;99.90;;;;;;5020513;28;20684;-78
2022/09/25 12:03:18;;;;;;;6.73;6.03;;;13.70;99.90;;;;;;5020654;28;21332;-78
2022/09/25 12:06:20;;;;;;;4.60;3.80;;;13.60;99.90;;;;;;5020092;28;20618;-78
2022/09/25 12:09:00;;;;;;;6.30;4.60;;;13.60;99.90;;;;;;5014615;28;20624;-78
2022/09/25 12:11:42;;;;;;;4.67;4.10;;;13.60;99.90;;;;;;5022590;28;20700;-78
2022/09/25 12:14:17;;;;;;;4.90;4.40;;;13.70;99.90;;;;;;5019871;28;20668;-78
2022/09/25 12:16:52;;;;;;;9.30;6.83;;;13.70;99.90;;;;;;5022085;28;21234;-78
2022/09/25 12:19:29;;;;;;;7.23;6.50;;;13.80;99.90;;;;;;5023478;28;20610;-77
2022/09/25 12:22:03;;;;;;;5.10;4.60;;;13.80;99.90;;;;;;5020094;28;20678;-76
2022/09/25 12:24:44;;;;;;;7.80;5.87;;;13.90;99.90;;;;;;5016482;28;20948;-76
2022/09/25 12:27:19;;;;;;;8.50;6.90;;;14.00;99.90;;;;;;5019860;28;20630;-77
2022/09/25 12:30:10;;;;;;;8.97;5.70;;;14.10;99.90;;;;;;5017173;28;20699;-77
2022/09/25 12:32:52;;;;;;;7.30;5.90;;;14.20;99.90;;;;;;5018509;28;20623;-77
2022/09/25 12:35:33;;;;;;;4.43;3.73;;;14.20;99.90;;;;;;5020740;28;20717;-76
2022/09/25 12:38:05;;;;;;;5.70;5.10;;;14.40;99.90;;;;;;5025555;28;20635;-77
2022/09/25 12:40:38;;;;;;;7.60;5.40;;;14.40;99.90;;;;;;5023823;28;20737;-77
2022/09/25 12:43:13;;;;;;;7.20;5.37;;;14.40;99.90;;;;;;5024070;28;20648;-76
2022/09/25 12:45:45;;;;;;;4.77;4.20;;;14.40;99.90;;;;;;5022071;28;20690;-77
2022/09/25 12:48:15;;;;;;;5.80;4.50;;;14.50;99.90;;;;;;5027031;28;20626;-75
2022/09/25 12:50:49;;;;;;;4.43;4.07;;;14.50;99.90;;;;;;5028892;28;20628;-77
2022/09/25 12:53:25;;;;;;;5.77;5.03;;;14.60;99.90;;;;;;5028359;28;20659;-77
2022/09/25 12:55:58;;;;;;;6.27;5.40;;;14.50;99.90;;;;;;5015933;28;21200;-76
2022/09/25 12:58:44;;;;;;;8.00;4.27;;;14.50;99.90;;;;;;5024731;28;20631;-77
2022/09/25 13:01:20;;;;;;;5.40;4.70;;;14.60;99.90;;;;;;5028204;28;20631;-76
2022/09/25 13:03:54;;;;;;;7.70;6.23;;;14.70;99.90;;;;;;5027790;28;20623;-77
2022/09/25 13:06:31;;;;;;;6.70;5.00;;;14.70;99.90;;;;;;5027980;28;20653;-76
2022/09/25 13:09:02;;;;;;;6.80;4.93;;;14.80;99.90;;;;;;5028423;28;20627;-76
2022/09/25 13:11:39;;;;;;;6.17;4.50;;;14.80;99.90;;;;;;5028307;28;20622;-77
2022/09/25 13:14:16;;;;;;;5.60;4.77;;;14.80;99.90;;;;;;5027483;28;20670;-77
2022/09/25 13:16:45;;;;;;;6.00;4.80;;;14.80;99.90;;;;;;5028407;28;20631;-76
2022/09/25 13:19:24;;;;;;;4.00;3.63;;;14.80;99.90;;;;;;5027382;28;20651;-80
2022/09/25 13:21:51;;;;;;;6.93;5.23;;;14.80;99.90;;;;;;5027650;28;21079;-79
2022/09/25 13:24:19;;;;;;;5.17;3.80;;;14.80;99.90;;;;;;5026914;28;20628;-80
2022/09/25 13:26:52;;;;;;;5.03;4.53;;;14.70;99.90;;;;;;5026933;28;20623;-80
2022/09/25 13:29:26;;;;;;;4.90;4.50;;;14.70;99.90;;;;;;5027724;28;20623;-80
2022/09/25 13:32:03;;;;;;;6.27;4.70;;;14.80;99.90;;;;;;5027839;28;20734;-80